createdAt,value
2018-03-20T00:01:14.973Z,14.10
2018-03-20T00:03:42.136Z,14.00
2018-03-20T00:06:09.300Z,14.10
2018-03-20T00:08:37.237Z,14.00
2018-03-20T00:11:04.403Z,14.00
2018-03-20T00:13:31.569Z,14.00
2018-03-20T00:15:59.503Z,14.00
2018-03-20T00:18:26.669Z,14.00
2018-03-20T00:20:53.837Z,14.00
2018-03-20T00:23:21.774Z,13.90
2018-03-20T00:25:48.946Z,13.90
2018-03-20T00:28:16.154Z,13.90
2018-03-20T00:30:43.322Z,14.00
2018-03-20T00:33:10.533Z,13.90
2018-03-20T00:35:38.501Z,13.90
2018-03-20T00:38:06.441Z,13.90
2018-03-20T00:40:33.641Z,13.90
2018-03-20T00:43:00.837Z,13.90
2018-03-20T00:45:28.003Z,13.90
2018-03-20T00:47:55.174Z,13.80
2018-03-20T00:50:23.106Z,13.80
2018-03-20T00:52:50.269Z,13.80
2018-03-20T00:55:17.437Z,13.90
2018-03-20T00:57:45.373Z,13.90
2018-03-20T01:00:12.646Z,13.80
2018-03-20T01:02:39.833Z,13.80
2018-03-20T01:05:07.040Z,13.80
2018-03-20T01:07:34.208Z,13.80
2018-03-20T01:10:01.415Z,13.80
2018-03-20T01:12:28.605Z,13.90
2018-03-20T01:14:55.769Z,13.80
2018-03-20T01:17:22.937Z,13.80
2018-03-20T01:19:50.866Z,13.80
2018-03-20T01:22:18.033Z,13.80
2018-03-20T01:24:45.205Z,13.80
2018-03-20T01:27:13.177Z,13.80
2018-03-20T01:29:41.179Z,13.70
2018-03-20T01:32:08.347Z,13.70
2018-03-20T01:34:35.506Z,13.70
2018-03-20T01:37:02.668Z,13.80
2018-03-20T01:39:29.834Z,13.80
2018-03-20T01:41:57.006Z,13.80
2018-03-20T01:44:24.940Z,13.70
2018-03-20T01:46:52.150Z,13.70
2018-03-20T01:49:19.324Z,13.80
2018-03-20T01:51:46.529Z,13.90
2018-03-20T01:54:14.460Z,14.00
2018-03-20T01:56:42.434Z,14.00
2018-03-20T01:59:09.598Z,14.00
2018-03-20T02:01:36.774Z,14.00
2018-03-20T02:04:04.749Z,13.90
2018-03-20T02:06:32.716Z,13.90
2018-03-20T02:08:59.889Z,13.90
2018-03-20T02:11:27.084Z,13.90
2018-03-20T02:13:54.247Z,13.90
2018-03-20T02:16:21.441Z,13.90
2018-03-20T02:18:48.608Z,13.90
2018-03-20T02:21:15.773Z,13.80
2018-03-20T02:23:42.945Z,13.90
2018-03-20T02:26:10.109Z,13.90
2018-03-20T02:28:37.312Z,13.90
2018-03-20T02:31:04.478Z,13.90
2018-03-20T02:33:32.579Z,13.80
2018-03-20T02:36:00.514Z,13.80
2018-03-20T02:38:27.714Z,13.80
2018-03-20T02:40:55.645Z,13.80
2018-03-20T02:43:22.850Z,13.80
2018-03-20T02:45:50.775Z,13.70
2018-03-20T02:48:17.970Z,13.70
2018-03-20T02:50:45.897Z,13.70
2018-03-20T02:53:13.057Z,13.70
2018-03-20T02:55:40.223Z,13.70
2018-03-20T02:58:07.388Z,13.70
2018-03-20T03:00:35.320Z,13.70
2018-03-20T03:03:02.480Z,13.70
2018-03-20T03:05:29.647Z,13.70
2018-03-20T03:07:57.592Z,13.70
2018-03-20T03:10:24.773Z,13.70
2018-03-20T03:12:53.198Z,13.70
2018-03-20T03:15:20.362Z,13.70
2018-03-20T03:17:47.569Z,13.70
2018-03-20T03:20:15.498Z,13.70
2018-03-20T03:22:42.657Z,13.70
2018-03-20T03:25:09.821Z,13.70
2018-03-20T03:27:36.984Z,13.70
2018-03-20T03:30:04.924Z,13.70
2018-03-20T03:32:32.093Z,13.60
2018-03-20T03:35:00.981Z,13.60
2018-03-20T03:37:29.062Z,13.60
2018-03-20T03:39:56.997Z,13.60
2018-03-20T03:42:24.156Z,13.60
2018-03-20T03:44:51.357Z,13.70
2018-03-20T03:47:18.524Z,13.60
2018-03-20T03:49:45.729Z,13.60
2018-03-20T03:52:12.893Z,13.70
2018-03-20T03:54:41.724Z,13.90
2018-03-20T03:57:08.883Z,13.90
2018-03-20T03:59:36.045Z,14.00
2018-03-20T04:02:04.138Z,14.00
2018-03-20T04:04:31.296Z,13.90
2018-03-20T04:06:58.493Z,13.90
2018-03-20T04:09:26.565Z,13.90
2018-03-20T04:11:53.745Z,13.90
2018-03-20T04:14:20.913Z,13.90
2018-03-20T04:16:48.077Z,13.90
2018-03-20T04:19:15.245Z,13.80
2018-03-20T04:21:43.175Z,13.90
2018-03-20T04:24:10.337Z,13.80
2018-03-20T04:26:37.493Z,13.80
2018-03-20T04:29:05.569Z,13.90
2018-03-20T04:31:33.681Z,13.80
2018-03-20T04:34:01.666Z,13.80
2018-03-20T04:36:28.829Z,13.70
2018-03-20T04:38:55.994Z,13.70
2018-03-20T04:41:24.055Z,13.80
2018-03-20T04:43:51.225Z,13.80
2018-03-20T04:46:19.181Z,13.80
2018-03-20T04:48:46.347Z,13.70
2018-03-20T04:51:13.511Z,13.70
2018-03-20T04:53:41.480Z,13.70
2018-03-20T04:56:09.541Z,13.70
2018-03-20T04:58:36.754Z,13.70
2018-03-20T05:01:03.915Z,13.70
2018-03-20T05:03:31.078Z,13.70
2018-03-20T05:05:58.274Z,13.70
2018-03-20T05:08:25.477Z,13.60
2018-03-20T05:10:52.637Z,13.60
2018-03-20T05:13:20.613Z,13.70
2018-03-20T05:15:48.653Z,13.60
2018-03-20T05:18:15.819Z,13.60
2018-03-20T05:20:48.777Z,13.60
2018-03-20T05:23:21.652Z,13.60
2018-03-20T05:25:49.581Z,13.60
2018-03-20T05:28:16.746Z,13.60
2018-03-20T05:30:43.916Z,13.60
2018-03-20T05:33:11.850Z,13.70
2018-03-20T05:35:39.049Z,13.70
2018-03-20T05:38:06.977Z,13.90
2018-03-20T05:40:34.146Z,13.90
2018-03-20T05:43:01.309Z,13.90
2018-03-20T05:45:30.069Z,14.00
2018-03-20T05:48:04.860Z,14.00
2018-03-20T05:50:37.869Z,13.90
2018-03-20T05:53:05.036Z,13.90
2018-03-20T05:55:32.950Z,13.90
2018-03-20T05:58:00.873Z,13.90
2018-03-20T06:00:28.145Z,13.80
2018-03-20T06:02:55.345Z,13.80
2018-03-20T06:05:22.522Z,13.80
2018-03-20T06:07:49.718Z,13.80
2018-03-20T06:10:18.562Z,13.80
2018-03-20T06:12:46.665Z,13.80
2018-03-20T06:15:13.857Z,13.80
2018-03-20T06:17:41.020Z,13.80
2018-03-20T06:20:08.191Z,13.70
2018-03-20T06:22:35.435Z,13.70
2018-03-20T06:25:03.377Z,13.70
2018-03-20T06:27:31.310Z,13.70
2018-03-20T06:29:58.526Z,13.70
2018-03-20T06:32:25.699Z,13.80
2018-03-20T06:34:52.861Z,13.80
2018-03-20T06:37:20.088Z,13.80
2018-03-20T06:39:47.251Z,13.80
2018-03-20T06:42:14.410Z,13.90
2018-03-20T06:44:41.600Z,13.90
2018-03-20T06:47:09.531Z,13.80
2018-03-20T06:49:37.724Z,13.80
2018-03-20T06:52:04.942Z,13.80
2018-03-20T06:54:32.106Z,13.80
2018-03-20T06:56:59.306Z,13.90
2018-03-20T06:59:27.368Z,14.00
2018-03-20T07:01:54.567Z,14.00
2018-03-20T07:04:22.649Z,14.00
2018-03-20T07:06:50.626Z,14.10
2018-03-20T07:09:18.721Z,14.10
2018-03-20T07:11:45.983Z,14.10
2018-03-20T07:14:14.185Z,14.20
2018-03-20T07:16:41.362Z,14.20
2018-03-20T07:19:08.593Z,14.30
2018-03-20T07:21:35.767Z,14.30
2018-03-20T07:24:03.021Z,14.20
2018-03-20T07:26:30.244Z,14.20
2018-03-20T07:28:57.409Z,14.20
2018-03-20T07:31:24.615Z,14.20
2018-03-20T07:33:52.786Z,14.20
2018-03-20T07:41:11.994Z,14.10
2018-03-20T07:43:40.136Z,14.10
2018-03-20T07:46:08.561Z,14.10
2018-03-20T07:48:36.506Z,14.10
2018-03-20T07:51:04.622Z,14.10
2018-03-20T07:53:33.510Z,14.10
2018-03-20T07:56:02.383Z,14.10
2018-03-20T07:58:29.595Z,14.10
2018-03-20T08:00:57.728Z,14.10
2018-03-20T08:03:26.596Z,14.10
2018-03-20T08:05:54.734Z,14.10
2018-03-20T08:08:22.941Z,13.90
2018-03-20T08:10:51.030Z,14.00
2018-03-20T08:13:18.269Z,13.90
2018-03-20T08:15:45.490Z,14.00
2018-03-20T08:18:13.665Z,14.00
2018-03-20T08:20:41.842Z,14.00
2018-03-20T08:23:09.810Z,13.90
2018-03-20T08:25:37.999Z,14.00
2018-03-20T08:28:05.961Z,14.00
2018-03-20T08:30:33.142Z,14.00
2018-03-20T08:33:01.142Z,14.00
2018-03-20T08:35:29.990Z,14.00
2018-03-20T08:37:58.829Z,14.00
2018-03-20T08:40:26.940Z,13.90
2018-03-20T08:42:54.106Z,13.90
2018-03-20T08:45:21.270Z,13.90
2018-03-20T08:47:48.441Z,14.00
2018-03-20T08:50:17.279Z,13.90
2018-03-20T08:52:44.924Z,13.90
2018-03-20T08:55:12.941Z,13.90
2018-03-20T08:57:40.107Z,14.00
2018-03-20T09:00:08.051Z,14.20
2018-03-20T09:02:36.009Z,14.20
2018-03-20T09:05:03.978Z,14.20
2018-03-20T09:07:31.984Z,14.20
2018-03-20T09:09:59.913Z,14.20
2018-03-20T09:12:27.192Z,14.20
2018-03-20T09:14:54.328Z,14.20
2018-03-20T09:17:21.526Z,14.20
2018-03-20T09:19:49.457Z,14.10
2018-03-20T09:22:18.295Z,14.10
2018-03-20T09:24:45.466Z,14.10
2018-03-20T09:27:12.631Z,14.10
2018-03-20T09:29:39.804Z,14.10
2018-03-20T09:32:06.976Z,14.10
2018-03-20T09:34:34.921Z,14.10
2018-03-20T09:37:02.092Z,14.10
2018-03-20T09:39:29.266Z,14.10
2018-03-20T09:41:57.198Z,14.00
2018-03-20T09:44:24.366Z,14.00
2018-03-20T09:46:51.534Z,14.00
2018-03-20T09:49:19.467Z,14.00
2018-03-20T09:51:46.639Z,14.00
2018-03-20T09:54:13.842Z,14.00
2018-03-20T09:56:41.786Z,14.00
2018-03-20T09:59:09.730Z,14.00
2018-03-20T10:01:37.678Z,14.00
2018-03-20T10:04:05.762Z,14.00
2018-03-20T10:06:32.942Z,14.00
2018-03-20T10:09:01.676Z,14.00
2018-03-20T10:11:28.843Z,14.00
2018-03-20T10:13:56.842Z,14.00
2018-03-20T10:16:25.672Z,14.00
2018-03-20T10:18:52.872Z,14.00
2018-03-20T10:21:20.038Z,14.00
2018-03-20T10:23:48.005Z,14.00
2018-03-20T10:26:15.994Z,14.00
2018-03-20T10:28:43.176Z,14.00
2018-03-20T10:31:10.337Z,14.00
2018-03-20T10:33:37.586Z,14.00
2018-03-20T10:36:04.754Z,14.00
2018-03-20T10:38:31.922Z,14.00
2018-03-20T10:40:59.087Z,14.00
2018-03-20T10:43:27.024Z,14.00
2018-03-20T10:45:54.190Z,14.00
2018-03-20T10:48:22.294Z,14.00
2018-03-20T10:50:50.226Z,14.00
2018-03-20T10:53:17.433Z,14.00
2018-03-20T10:55:45.402Z,14.10
2018-03-20T10:58:12.565Z,14.20
2018-03-20T11:00:45.374Z,14.30
2018-03-20T11:03:12.546Z,14.30
2018-03-20T11:05:40.649Z,14.30
2018-03-20T11:08:08.581Z,14.30
2018-03-20T11:10:36.586Z,14.30
2018-03-20T11:13:04.510Z,14.20
2018-03-20T11:15:31.706Z,14.20
2018-03-20T11:17:59.642Z,14.20
2018-03-20T11:20:27.715Z,14.20
2018-03-20T11:22:54.924Z,14.20
2018-03-20T11:25:23.025Z,14.20
2018-03-20T11:27:50.998Z,14.10
2018-03-20T11:30:18.168Z,14.20
2018-03-20T11:32:45.379Z,14.20
2018-03-20T11:35:12.616Z,14.20
2018-03-20T11:37:40.612Z,14.10
2018-03-20T11:40:07.895Z,14.10
2018-03-20T11:42:35.066Z,14.10
2018-03-20T11:45:03.886Z,14.10
2018-03-20T11:47:31.970Z,14.10
2018-03-20T11:50:00.918Z,14.10
2018-03-20T11:52:28.994Z,14.10
2018-03-20T11:54:56.196Z,14.10
2018-03-20T11:57:24.306Z,14.10
2018-03-20T11:59:52.406Z,14.10
2018-03-20T12:02:20.377Z,14.10
2018-03-20T12:04:48.349Z,14.10
2018-03-20T12:07:16.307Z,14.10
2018-03-20T12:09:48.034Z,14.10
2018-03-20T12:12:16.162Z,14.10
2018-03-20T12:14:43.326Z,14.00
2018-03-20T12:17:10.543Z,14.00
2018-03-20T12:19:38.477Z,14.00
2018-03-20T12:22:07.209Z,14.00
2018-03-20T12:24:35.138Z,14.00
2018-03-20T12:27:02.305Z,14.00
2018-03-20T12:29:29.472Z,13.90
2018-03-20T12:31:57.414Z,14.00
2018-03-20T12:34:25.497Z,14.00
2018-03-20T12:36:52.662Z,14.00
2018-03-20T12:39:20.593Z,14.00
2018-03-20T12:41:47.758Z,14.00
2018-03-20T12:44:14.917Z,14.00
2018-03-20T12:46:43.020Z,14.00
2018-03-20T12:49:10.198Z,14.00
2018-03-20T12:51:37.398Z,14.10
2018-03-20T12:54:04.560Z,14.10
2018-03-20T12:56:31.768Z,14.20
2018-03-20T12:58:58.929Z,14.20
2018-03-20T13:01:26.154Z,14.30
2018-03-20T13:03:53.324Z,14.30
2018-03-20T13:06:20.542Z,14.20
2018-03-20T13:08:48.474Z,14.20
2018-03-20T13:11:15.692Z,14.20
2018-03-20T13:13:42.857Z,14.20
2018-03-20T13:16:10.781Z,14.10
2018-03-20T13:18:38.714Z,14.10
2018-03-20T13:21:05.874Z,14.10
2018-03-20T13:23:33.075Z,14.10
2018-03-20T13:26:01.075Z,14.10
2018-03-20T13:28:29.793Z,14.00
2018-03-20T13:30:58.638Z,14.10
2018-03-20T13:33:26.862Z,14.10
2018-03-20T13:35:54.027Z,14.00
2018-03-20T13:38:21.996Z,14.00
2018-03-20T13:40:49.926Z,14.00
2018-03-20T13:43:17.099Z,14.00
2018-03-20T13:45:44.270Z,14.00
2018-03-20T13:48:12.249Z,14.00
2018-03-20T13:50:40.162Z,14.00
2018-03-20T13:53:07.322Z,14.00
2018-03-20T13:55:34.486Z,14.00
2018-03-20T13:58:01.655Z,14.00
2018-03-20T14:00:29.603Z,14.00
2018-03-20T14:02:56.926Z,14.00
2018-03-20T14:05:24.126Z,14.00
2018-03-20T14:07:52.059Z,13.90
2018-03-20T14:10:19.229Z,13.90
2018-03-20T14:12:46.389Z,14.00
2018-03-20T14:15:13.555Z,14.00
2018-03-20T14:17:41.491Z,14.10
2018-03-20T14:20:08.658Z,14.10
2018-03-20T14:22:35.831Z,14.10
2018-03-20T14:25:03.766Z,14.00
2018-03-20T14:27:30.929Z,14.00
2018-03-20T14:29:58.883Z,14.00
2018-03-20T14:32:26.052Z,13.90
2018-03-20T14:34:54.047Z,13.90
2018-03-20T14:37:21.975Z,13.80
2018-03-20T14:39:49.137Z,13.80
2018-03-20T14:42:16.308Z,13.80
2018-03-20T14:44:43.475Z,13.80
2018-03-20T14:47:11.406Z,14.00
2018-03-20T14:49:39.353Z,13.90
2018-03-20T14:52:07.426Z,14.10
2018-03-20T14:54:34.594Z,14.20
2018-03-20T14:57:01.758Z,14.10
2018-03-20T14:59:29.720Z,14.20
2018-03-20T15:01:56.947Z,14.20
2018-03-20T15:04:24.123Z,14.20
2018-03-20T15:06:52.069Z,14.20
2018-03-20T15:09:19.282Z,14.20
2018-03-20T15:11:48.160Z,14.10
2018-03-20T15:14:16.131Z,14.10
2018-03-20T15:16:44.115Z,14.10
2018-03-20T15:19:12.042Z,14.00
2018-03-20T15:21:39.972Z,14.00
2018-03-20T15:24:07.139Z,14.00
2018-03-20T15:26:35.237Z,14.00
2018-03-20T15:29:04.099Z,14.00
2018-03-20T15:31:32.163Z,14.00
2018-03-20T15:33:59.381Z,14.00
2018-03-20T15:36:27.442Z,14.00
2018-03-20T15:38:54.615Z,14.00
2018-03-20T15:41:23.450Z,14.00
2018-03-20T15:43:51.510Z,14.00
2018-03-20T15:46:18.718Z,14.00
2018-03-20T15:48:47.578Z,14.00
2018-03-20T15:51:15.553Z,14.00
2018-03-20T15:53:43.629Z,14.00
2018-03-20T15:56:10.794Z,14.00
2018-03-20T15:58:37.958Z,14.00
2018-03-20T16:01:06.698Z,14.00
2018-03-20T16:03:33.955Z,14.00
2018-03-20T16:06:01.199Z,14.00
2018-03-20T16:08:29.311Z,14.00
2018-03-20T16:10:57.349Z,14.10
2018-03-20T16:13:24.514Z,14.10
2018-03-20T16:15:51.724Z,14.10
2018-03-20T16:18:19.005Z,14.10
2018-03-20T16:20:46.178Z,14.10
2018-03-20T16:23:13.346Z,14.10
2018-03-20T16:25:40.521Z,14.10
2018-03-20T16:28:08.462Z,14.10
2018-03-20T16:30:36.162Z,14.10
2018-03-20T16:33:04.677Z,14.00
2018-03-20T16:35:32.813Z,14.00
2018-03-20T16:38:00.823Z,14.10
2018-03-20T16:40:28.794Z,14.10
2018-03-20T16:42:55.962Z,14.00
2018-03-20T16:45:23.211Z,14.10
2018-03-20T16:47:50.378Z,14.10
2018-03-20T16:50:17.600Z,14.20
2018-03-20T16:52:44.762Z,14.30
2018-03-20T16:55:11.941Z,14.30
2018-03-20T16:57:39.156Z,14.30
2018-03-20T17:00:06.328Z,14.30
2018-03-20T17:02:34.314Z,14.20
2018-03-20T17:05:01.513Z,14.20
2018-03-20T17:07:28.678Z,14.20
2018-03-20T17:09:55.842Z,14.20
2018-03-20T17:12:23.010Z,14.20
2018-03-20T17:14:50.244Z,14.20
2018-03-20T17:17:18.413Z,14.10
2018-03-20T17:19:45.582Z,14.00
2018-03-20T17:22:13.518Z,14.10
2018-03-20T17:24:40.699Z,14.10
2018-03-20T17:27:07.940Z,14.10
2018-03-20T17:29:35.914Z,14.10
2018-03-20T17:32:03.084Z,14.00
2018-03-20T17:34:30.288Z,14.00
2018-03-20T17:36:58.282Z,14.10
2018-03-20T17:39:26.221Z,14.10
2018-03-20T17:41:54.151Z,14.10
2018-03-20T17:44:21.318Z,14.10
2018-03-20T17:46:49.254Z,14.10
2018-03-20T17:49:16.425Z,14.10
2018-03-20T17:51:43.594Z,14.10
2018-03-20T17:54:11.530Z,14.20
2018-03-20T17:56:38.698Z,14.20
2018-03-20T17:59:05.865Z,14.10
2018-03-20T18:01:33.798Z,14.10
2018-03-20T18:04:00.959Z,14.10
2018-03-20T18:06:28.123Z,14.10
2018-03-20T18:08:56.066Z,14.10
2018-03-20T18:11:23.314Z,14.10
2018-03-20T18:13:50.518Z,14.10
2018-03-20T18:16:18.458Z,14.10
2018-03-20T18:18:45.626Z,14.10
2018-03-20T18:21:12.797Z,14.10
2018-03-20T18:23:40.727Z,14.10
2018-03-20T18:26:08.658Z,14.20
2018-03-20T18:28:35.830Z,14.20
2018-03-20T18:31:03.016Z,14.30
2018-03-20T18:33:30.173Z,14.40
2018-03-20T18:35:57.342Z,14.40
2018-03-20T18:38:25.279Z,14.40
2018-03-20T18:40:52.447Z,14.40
2018-03-20T18:43:19.616Z,14.40
2018-03-20T18:45:47.541Z,14.30
2018-03-20T18:48:14.711Z,14.30
2018-03-20T18:50:41.880Z,14.30
2018-03-20T18:53:09.819Z,14.30
2018-03-20T18:55:36.987Z,14.30
2018-03-20T18:58:05.064Z,14.30
2018-03-20T19:00:32.286Z,14.20
2018-03-20T19:02:59.460Z,14.20
2018-03-20T19:05:26.632Z,14.20
2018-03-20T19:07:54.608Z,14.20
2018-03-20T19:10:22.525Z,14.20
2018-03-20T19:12:49.697Z,14.20
2018-03-20T19:15:16.868Z,14.20
2018-03-20T19:17:44.807Z,14.20
2018-03-20T19:20:12.776Z,14.20
2018-03-20T19:22:39.988Z,14.20
2018-03-20T19:25:07.160Z,14.20
2018-03-20T19:27:34.358Z,14.20
2018-03-20T19:30:02.295Z,14.20
2018-03-20T19:32:29.509Z,14.20
2018-03-20T19:34:56.673Z,14.20
2018-03-20T19:37:23.837Z,14.20
2018-03-20T19:39:51.010Z,14.20
2018-03-20T19:42:18.733Z,14.20
2018-03-20T19:44:46.792Z,14.20
2018-03-20T19:47:14.797Z,14.10
2018-03-20T19:49:42.951Z,14.10
2018-03-20T19:52:10.156Z,14.20
2018-03-20T19:54:37.362Z,14.30
2018-03-20T19:57:04.527Z,14.40
2018-03-20T19:59:31.737Z,14.50
2018-03-20T20:01:59.713Z,14.50
2018-03-20T20:04:28.489Z,14.40
2018-03-20T20:06:57.390Z,14.40
2018-03-20T20:09:25.322Z,14.40
2018-03-20T20:11:52.503Z,14.40
2018-03-20T20:14:20.662Z,14.40
2018-03-20T20:16:47.921Z,14.40
2018-03-20T20:19:15.901Z,14.30
2018-03-20T20:21:43.839Z,14.30
2018-03-20T20:24:11.149Z,14.30
2018-03-20T20:26:39.091Z,14.30
2018-03-20T20:29:06.300Z,14.30
2018-03-20T20:31:33.461Z,14.30
2018-03-20T20:34:00.642Z,14.20
2018-03-20T20:36:27.815Z,14.20
2018-03-20T20:38:55.777Z,14.20
2018-03-20T20:41:23.750Z,14.20
2018-03-20T20:43:52.490Z,14.10
2018-03-20T20:46:20.318Z,14.10
2018-03-20T20:48:48.426Z,14.10
2018-03-20T20:51:15.631Z,14.10
2018-03-20T20:53:43.608Z,14.10
2018-03-20T20:56:11.579Z,14.20
2018-03-20T20:58:39.532Z,14.20
2018-03-20T21:01:06.814Z,14.20
2018-03-20T21:03:33.990Z,14.20
2018-03-20T21:06:01.193Z,14.20
2018-03-20T21:08:29.204Z,14.10
2018-03-20T21:10:56.454Z,14.10
2018-03-20T21:13:23.660Z,14.10
2018-03-20T21:15:50.826Z,14.10
2018-03-20T21:18:18.795Z,14.10
2018-03-20T21:20:46.732Z,14.00
2018-03-20T21:23:13.896Z,14.00
2018-03-20T21:25:42.002Z,14.00
2018-03-20T21:28:09.235Z,14.00
2018-03-20T21:30:36.419Z,14.10
2018-03-20T21:33:03.631Z,14.10
2018-03-20T21:35:30.838Z,14.00
2018-03-20T21:37:58.006Z,14.10
2018-03-20T21:40:25.169Z,14.10
2018-03-20T21:42:52.378Z,14.20
2018-03-20T21:45:19.545Z,14.30
2018-03-20T21:47:46.761Z,14.30
2018-03-20T21:50:14.726Z,14.30
2018-03-20T21:52:42.652Z,14.30
2018-03-20T21:55:09.856Z,14.30
2018-03-20T21:57:39.405Z,14.30
2018-03-20T22:00:09.406Z,14.20
2018-03-20T22:02:38.979Z,14.20
2018-03-20T22:05:18.595Z,14.20
2018-03-20T22:07:56.441Z,14.20
2018-03-20T22:10:25.814Z,14.20
2018-03-20T22:12:54.109Z,14.20
2018-03-20T22:15:42.638Z,14.20
2018-03-20T22:18:13.680Z,14.20
2018-03-20T22:20:49.573Z,14.20
2018-03-20T22:23:21.209Z,14.10
2018-03-20T22:25:49.658Z,14.10
2018-03-20T22:28:22.760Z,14.10
2018-03-20T22:30:54.274Z,14.10
2018-03-20T22:33:22.464Z,14.10
2018-03-20T22:35:50.773Z,14.10
2018-03-20T22:38:19.424Z,14.10
2018-03-20T22:40:47.469Z,14.10
2018-03-20T22:43:14.995Z,14.10
2018-03-20T22:45:43.381Z,14.10
2018-03-20T22:48:14.622Z,14.10
2018-03-20T22:50:42.583Z,14.10
2018-03-20T22:53:09.754Z,14.10
2018-03-20T22:55:36.922Z,14.00
2018-03-20T22:58:04.850Z,14.00
2018-03-20T23:00:32.041Z,14.00
2018-03-20T23:02:59.978Z,14.00
2018-03-20T23:05:27.146Z,14.00
2018-03-20T23:07:54.789Z,14.00
2018-03-20T23:10:22.040Z,14.00
2018-03-20T23:12:49.210Z,14.00
2018-03-20T23:15:16.382Z,14.00
2018-03-20T23:17:44.405Z,14.10
2018-03-20T23:20:11.607Z,14.10
2018-03-20T23:22:39.549Z,14.00
2018-03-20T23:25:06.726Z,14.00
2018-03-20T23:27:34.657Z,14.00
2018-03-20T23:30:02.594Z,14.00
2018-03-20T23:32:29.771Z,14.00
2018-03-20T23:34:56.979Z,14.00
2018-03-20T23:37:24.145Z,14.00
2018-03-20T23:39:51.321Z,14.10
2018-03-20T23:42:18.486Z,14.10
2018-03-20T23:44:46.615Z,14.20
2018-03-20T23:47:13.791Z,14.30
2018-03-20T23:49:40.986Z,14.30
2018-03-20T23:52:08.148Z,14.30
2018-03-20T23:54:36.115Z,14.30
2018-03-20T23:57:04.960Z,14.20
2018-03-20T23:59:32.126Z,14.20
